Waynedale, Indiana
Current Conditions -  °F | °C
As of 5:54 PM on Thursday 27 Nov 2014 (Local Time) from KFWA Reporting Station
Light Snow Light Snow  
Wind Chill: -9°   Ceiling: 2600
Heat Index: -2°   Visibility: 9mi
Dew Point: -5°   Wind: 17mph
Humidity: 81%   Direction: 270°W
Pressure: 30.31"   Gusts: NA
Location:  40.9649°N, 85.1332°W
Report Text: KFWA 272254Z 27015KT 9SM -SN FEW016 OVC026 M02/M05 A3031 RMK AO2 SLP273 P0000 T10221050
Loading
Personal Weather Stations






























Interactive Weather Map New forecast layout! Learn more

10-Day Weather Forecast

Advertisements
Track Severe Weather on mobile